createdAt,value
2019-02-03T00:00:24.096Z,25.93
2019-02-03T00:02:50.931Z,28.90
2019-02-03T00:05:17.790Z,25.00
2019-02-03T00:07:44.611Z,26.17
2019-02-03T00:10:11.451Z,28.40
2019-02-03T00:12:38.291Z,27.53
2019-02-03T00:15:05.854Z,23.07
2019-02-03T00:17:32.703Z,22.90
2019-02-03T00:19:59.570Z,25.20
2019-02-03T00:22:26.398Z,20.80
2019-02-03T00:24:53.246Z,23.73
2019-02-03T00:27:20.082Z,26.83
2019-02-03T00:29:47.014Z,23.50
2019-02-03T00:32:13.859Z,22.03
2019-02-03T00:34:40.722Z,21.80
2019-02-03T00:37:15.251Z,21.73
2019-02-03T00:39:34.467Z,18.77
2019-02-03T00:42:01.346Z,24.13
2019-02-03T00:44:28.161Z,22.63
2019-02-03T00:46:54.991Z,21.83
2019-02-03T00:49:21.837Z,23.17
2019-02-03T00:51:48.675Z,22.70
2019-02-03T00:54:15.525Z,21.90
2019-02-03T00:56:42.359Z,19.90
2019-02-03T00:59:09.219Z,21.00
2019-02-03T01:01:36.065Z,17.20
2019-02-03T01:04:02.916Z,18.93
2019-02-03T01:06:29.751Z,17.97
2019-02-03T01:08:56.599Z,21.13
2019-02-03T01:11:23.466Z,20.90
2019-02-03T01:13:50.290Z,17.93
2019-02-03T01:16:17.142Z,18.93
2019-02-03T01:18:43.991Z,22.80
2019-02-03T01:21:10.827Z,17.20
2019-02-03T01:23:37.662Z,19.20
2019-02-03T01:26:04.511Z,17.70
2019-02-03T01:28:31.342Z,21.10
2019-02-03T01:30:58.203Z,19.40
2019-02-03T01:33:25.030Z,20.00
2019-02-03T01:35:51.882Z,17.77
2019-02-03T01:38:18.720Z,15.60
2019-02-03T01:40:45.562Z,19.97
2019-02-03T01:43:12.383Z,17.30
2019-02-03T01:45:39.234Z,17.70
2019-02-03T01:48:06.074Z,17.13
2019-02-03T01:50:32.930Z,14.60
2019-02-03T01:52:59.758Z,13.30
2019-02-03T01:55:26.615Z,12.40
2019-02-03T01:57:53.454Z,12.57
2019-02-03T02:00:22.258Z,13.53
2019-02-03T02:02:49.081Z,14.70
2019-02-03T02:05:15.918Z,15.35
2019-02-03T02:07:51.138Z,14.25
2019-02-03T02:10:12.191Z,14.37
2019-02-03T02:12:39.010Z,12.67
2019-02-03T02:15:08.091Z,15.40
2019-02-03T02:17:34.950Z,16.02
2019-02-03T02:20:01.811Z,15.63
2019-02-03T02:22:28.642Z,13.28
2019-02-03T02:24:55.485Z,14.78
2019-02-03T02:27:22.314Z,13.37
2019-02-03T02:29:49.199Z,13.30
2019-02-03T02:32:16.030Z,11.73
2019-02-03T02:34:42.877Z,11.73
2019-02-03T02:37:09.721Z,12.93
2019-02-03T02:39:36.547Z,12.40
2019-02-03T02:42:03.398Z,14.67
2019-02-03T02:44:30.216Z,12.27
2019-02-03T02:46:57.063Z,15.40
2019-02-03T02:49:24.070Z,13.93
2019-02-03T02:51:50.926Z,14.78
2019-02-03T02:54:17.761Z,17.73
2019-02-03T02:56:44.595Z,15.68
2019-02-03T02:59:11.425Z,17.70
2019-02-03T03:01:38.278Z,15.47
2019-02-03T03:04:05.094Z,15.55
2019-02-03T03:06:31.954Z,14.67
2019-02-03T03:08:58.781Z,14.17
2019-02-03T03:11:25.631Z,15.00
2019-02-03T03:13:52.466Z,14.17
2019-02-03T03:16:19.317Z,15.47
2019-02-03T03:18:46.162Z,16.77
2019-02-03T03:21:13.187Z,16.83
2019-02-03T03:23:40.022Z,17.93
2019-02-03T03:26:06.870Z,15.40
2019-02-03T03:28:33.695Z,18.57
2019-02-03T03:31:00.564Z,19.70
2019-02-03T03:33:27.390Z,22.25
2019-02-03T03:35:54.243Z,19.57
2019-02-03T03:38:31.634Z,22.37
2019-02-03T03:40:47.922Z,24.12
2019-02-03T03:43:14.746Z,21.87
2019-02-03T03:45:41.593Z,21.00
2019-02-03T03:48:08.426Z,28.30
2019-02-03T03:50:35.285Z,25.15
2019-02-03T03:53:02.110Z,23.57
2019-02-03T03:55:28.951Z,28.50
2019-02-03T03:57:55.778Z,20.30
2019-02-03T04:00:24.001Z,27.62
2019-02-03T04:02:50.898Z,21.10
2019-02-03T04:05:17.721Z,25.20
2019-02-03T04:07:44.565Z,22.07
2019-02-03T04:10:12.070Z,23.98
2019-02-03T04:12:38.911Z,20.07
2019-02-03T04:15:07.123Z,24.95
2019-02-03T04:17:33.997Z,25.37
2019-02-03T04:20:00.795Z,22.20
2019-02-03T04:22:27.646Z,20.67
2019-02-03T04:24:54.470Z,25.88
2019-02-03T04:27:21.306Z,23.27
2019-02-03T04:29:48.126Z,22.82
2019-02-03T04:32:15.070Z,22.27
2019-02-03T04:34:41.897Z,25.92
2019-02-03T04:37:08.759Z,27.95
2019-02-03T04:39:35.627Z,28.60
2019-02-03T04:42:02.485Z,31.50
2019-02-03T04:44:29.317Z,30.30
2019-02-03T04:46:56.158Z,31.87
2019-02-03T04:49:22.990Z,27.80
2019-02-03T04:51:49.829Z,32.65
2019-02-03T04:54:16.660Z,30.63
2019-02-03T04:56:43.506Z,33.18
2019-02-03T04:59:10.335Z,29.20
2019-02-03T05:01:37.182Z,38.48
2019-02-03T05:04:04.069Z,32.10
2019-02-03T05:06:30.922Z,37.30
2019-02-03T05:09:10.398Z,29.20
2019-02-03T05:11:24.634Z,38.65
2019-02-03T05:13:51.471Z,35.63
2019-02-03T05:16:18.403Z,40.55
2019-02-03T05:18:45.237Z,38.60
2019-02-03T05:21:12.078Z,38.90
2019-02-03T05:23:38.926Z,41.67
2019-02-03T05:26:05.781Z,38.37
2019-02-03T05:28:32.636Z,36.93
2019-02-03T05:30:59.480Z,30.57
2019-02-03T05:33:26.322Z,33.37
2019-02-03T05:35:53.157Z,35.20
2019-02-03T05:38:20.019Z,32.90
2019-02-03T05:40:46.859Z,34.33
2019-02-03T05:43:13.737Z,32.93
2019-02-03T05:45:40.566Z,36.50
2019-02-03T05:48:07.410Z,37.33
2019-02-03T05:50:34.239Z,32.67
2019-02-03T05:53:01.100Z,38.83
2019-02-03T05:55:27.932Z,37.03
2019-02-03T05:57:54.773Z,40.15
2019-02-03T06:00:27.793Z,32.93
2019-02-03T06:02:54.639Z,38.80
2019-02-03T06:05:21.466Z,29.13
2019-02-03T06:07:48.312Z,37.35
2019-02-03T06:10:15.869Z,39.50
2019-02-03T06:12:42.714Z,35.35
2019-02-03T06:15:09.712Z,35.03
2019-02-03T06:17:36.866Z,34.70
2019-02-03T06:20:04.086Z,32.63
2019-02-03T06:22:30.946Z,32.88
2019-02-03T06:24:57.794Z,33.33
2019-02-03T06:27:24.670Z,31.33
2019-02-03T06:29:51.539Z,33.50
2019-02-03T06:32:18.391Z,30.33
2019-02-03T06:34:45.217Z,28.15
2019-02-03T06:37:12.040Z,30.30
2019-02-03T06:39:48.214Z,31.75
2019-02-03T06:42:05.743Z,32.15
2019-02-03T06:44:32.586Z,32.30
2019-02-03T06:47:22.577Z,32.25
2019-02-03T06:49:49.426Z,33.13
2019-02-03T06:52:16.252Z,27.10
2019-02-03T06:54:43.102Z,36.15
2019-02-03T06:57:09.933Z,27.40
2019-02-03T06:59:36.779Z,28.47
2019-02-03T07:02:03.622Z,23.83
2019-02-03T07:04:30.462Z,28.75
2019-02-03T07:06:57.289Z,28.20
2019-02-03T07:09:24.142Z,27.82
2019-02-03T07:11:50.979Z,21.07
2019-02-03T07:14:17.813Z,28.52
2019-02-03T07:16:44.646Z,32.50
2019-02-03T07:19:11.489Z,30.77
2019-02-03T07:21:38.312Z,28.42
2019-02-03T07:24:05.167Z,28.17
2019-02-03T07:26:32.025Z,28.77
2019-02-03T07:28:58.874Z,28.57
2019-02-03T07:31:25.706Z,29.57
2019-02-03T07:33:52.563Z,24.37
2019-02-03T07:36:19.394Z,27.07
2019-02-03T07:38:46.235Z,26.70
2019-02-03T07:41:13.071Z,24.80
2019-02-03T07:43:39.918Z,24.10
2019-02-03T07:46:06.742Z,21.93
2019-02-03T07:48:33.570Z,26.37
2019-02-03T07:51:00.422Z,27.70
2019-02-03T07:53:27.256Z,24.33
2019-02-03T07:55:54.182Z,25.50
2019-02-03T07:58:20.996Z,24.93
2019-02-03T08:00:47.845Z,25.82
2019-02-03T08:03:14.670Z,24.40
2019-02-03T08:05:41.532Z,26.20
2019-02-03T08:08:08.359Z,19.13
2019-02-03T08:10:36.351Z,25.55
2019-02-03T08:13:03.221Z,20.63
2019-02-03T08:15:30.090Z,23.70
2019-02-03T08:17:56.985Z,17.03
2019-02-03T08:20:24.010Z,22.65
2019-02-03T08:22:50.836Z,20.43
2019-02-03T08:25:17.684Z,20.57
2019-02-03T08:27:44.534Z,17.23
2019-02-03T08:30:14.244Z,18.73
2019-02-03T08:32:41.074Z,20.90
2019-02-03T08:35:07.926Z,20.70
2019-02-03T08:37:34.798Z,18.50
2019-02-03T08:40:01.673Z,17.90
2019-02-03T08:42:28.499Z,20.90
2019-02-03T08:44:55.350Z,16.40
2019-02-03T08:47:22.197Z,18.55
2019-02-03T08:49:49.122Z,17.10
2019-02-03T08:52:16.011Z,17.25
2019-02-03T08:54:56.795Z,16.63
2019-02-03T08:57:09.803Z,16.67
2019-02-03T08:59:36.638Z,17.67
2019-02-03T09:02:03.584Z,17.83
2019-02-03T09:04:30.402Z,21.03
2019-02-03T09:06:57.848Z,17.67
2019-02-03T09:09:24.086Z,19.23
2019-02-03T09:11:50.934Z,17.57
2019-02-03T09:14:17.905Z,19.15
2019-02-03T09:16:44.766Z,18.90
2019-02-03T09:19:11.670Z,19.67
2019-02-03T09:21:38.596Z,19.42
2019-02-03T09:24:05.420Z,21.87
2019-02-03T09:26:32.382Z,19.82
2019-02-03T09:28:59.241Z,19.77
2019-02-03T09:31:26.086Z,16.67
2019-02-03T09:33:52.918Z,21.27
2019-02-03T09:36:19.770Z,20.97
2019-02-03T09:38:46.594Z,20.50
2019-02-03T09:41:13.522Z,22.33
2019-02-03T09:43:40.362Z,20.83
2019-02-03T09:46:07.217Z,20.27
2019-02-03T09:48:34.148Z,17.67
2019-02-03T09:51:01.025Z,15.93
2019-02-03T09:53:27.862Z,20.30
2019-02-03T09:55:54.907Z,18.93
2019-02-03T09:58:21.743Z,16.57
2019-02-03T10:00:48.621Z,19.67
2019-02-03T10:03:15.502Z,22.27
2019-02-03T10:05:42.347Z,23.40
2019-02-03T10:08:09.189Z,20.17
2019-02-03T10:10:37.287Z,20.40
2019-02-03T10:13:04.661Z,20.13
2019-02-03T10:15:31.610Z,21.03
2019-02-03T10:17:58.450Z,21.02
2019-02-03T10:20:25.362Z,21.68
2019-02-03T10:22:52.135Z,19.90
2019-02-03T10:25:20.198Z,22.03
2019-02-03T10:27:47.199Z,18.43
2019-02-03T10:30:14.204Z,20.27
2019-02-03T10:32:41.128Z,22.30
2019-02-03T10:35:23.124Z,21.52
2019-02-03T10:37:39.369Z,21.23
2019-02-03T10:40:09.240Z,22.43
2019-02-03T10:42:36.158Z,19.00
2019-02-03T10:45:03.037Z,19.07
2019-02-03T10:47:29.885Z,21.17
2019-02-03T10:49:56.779Z,29.53
2019-02-03T10:52:23.633Z,23.10
2019-02-03T10:54:50.675Z,19.47
2019-02-03T10:57:17.530Z,16.93
2019-02-03T10:59:44.399Z,21.50
2019-02-03T11:02:11.251Z,24.70
2019-02-03T11:04:38.220Z,25.80
2019-02-03T11:07:04.949Z,23.40
2019-02-03T11:09:31.790Z,20.63
2019-02-03T11:11:58.649Z,23.30
2019-02-03T11:14:25.486Z,21.00
2019-02-03T11:16:52.375Z,20.90
2019-02-03T11:19:19.218Z,21.67
2019-02-03T11:21:46.085Z,24.50
2019-02-03T11:24:12.915Z,21.03
2019-02-03T11:26:39.819Z,24.45
2019-02-03T11:29:06.658Z,27.50
2019-02-03T11:31:33.514Z,25.13
2019-02-03T11:34:00.383Z,20.27
2019-02-03T11:36:27.291Z,22.10
2019-02-03T11:38:54.151Z,21.07
2019-02-03T11:41:20.978Z,23.57
2019-02-03T11:43:47.851Z,21.43
2019-02-03T11:46:14.766Z,23.33
2019-02-03T11:48:41.621Z,23.27
2019-02-03T11:51:08.477Z,19.63
2019-02-03T11:53:35.327Z,22.40
2019-02-03T11:56:02.182Z,23.73
2019-02-03T11:58:29.038Z,20.53
2019-02-03T12:00:56.774Z,22.32
2019-02-03T12:03:23.629Z,22.80
2019-02-03T12:05:50.485Z,27.70
2019-02-03T12:08:17.391Z,24.00
2019-02-03T12:10:44.243Z,22.40
2019-02-03T12:13:11.107Z,21.70
2019-02-03T12:15:37.998Z,19.97
2019-02-03T12:18:05.086Z,21.90
2019-02-03T12:20:31.934Z,21.53
2019-02-03T12:22:58.796Z,21.43
2019-02-03T12:25:27.460Z,23.30
2019-02-03T12:27:54.314Z,22.13
2019-02-03T12:30:24.422Z,24.47
2019-02-03T12:32:51.286Z,27.03
2019-02-03T12:35:19.669Z,22.60
2019-02-03T12:37:44.997Z,25.47
2019-02-03T12:40:14.450Z,22.30
2019-02-03T12:42:41.294Z,21.77
2019-02-03T12:45:09.166Z,21.00
2019-02-03T12:47:36.054Z,26.67
2019-02-03T12:50:03.382Z,27.50
2019-02-03T12:52:30.574Z,24.83
2019-02-03T12:54:57.466Z,23.00
2019-02-03T12:57:24.363Z,24.90
2019-02-03T12:59:51.238Z,21.70
2019-02-03T13:02:18.070Z,22.77
2019-02-03T13:04:44.936Z,22.93
2019-02-03T13:07:11.795Z,22.53
2019-02-03T13:09:38.663Z,23.20
2019-02-03T13:12:05.514Z,22.57
2019-02-03T13:14:32.379Z,26.47
2019-02-03T13:16:59.221Z,23.73
2019-02-03T13:19:26.086Z,22.73
2019-02-03T13:21:52.922Z,23.80
2019-02-03T13:24:19.783Z,22.95
2019-02-03T13:26:46.643Z,25.50
2019-02-03T13:29:13.504Z,20.63
2019-02-03T13:31:40.347Z,21.37
2019-02-03T13:34:07.247Z,22.77
2019-02-03T13:36:34.098Z,22.07
2019-02-03T13:39:00.954Z,21.63
2019-02-03T13:41:27.807Z,19.93
2019-02-03T13:43:54.667Z,23.07
2019-02-03T13:46:21.518Z,19.33
2019-02-03T13:48:48.470Z,17.50
2019-02-03T13:51:15.340Z,20.60
2019-02-03T13:53:42.182Z,18.17
2019-02-03T13:56:09.010Z,20.65
2019-02-03T13:58:37.517Z,21.97
2019-02-03T14:01:03.582Z,20.87
2019-02-03T14:03:30.446Z,20.37
2019-02-03T14:05:57.298Z,21.83
2019-02-03T14:08:24.130Z,19.73
2019-02-03T14:10:50.986Z,21.33
2019-02-03T14:13:17.822Z,21.50
2019-02-03T14:15:44.691Z,19.30
2019-02-03T14:18:11.520Z,20.73
2019-02-03T14:20:38.421Z,20.33
2019-02-03T14:23:05.218Z,21.60
2019-02-03T14:25:32.058Z,20.00
2019-02-03T14:27:58.891Z,22.60
2019-02-03T14:30:39.201Z,21.67
2019-02-03T14:32:55.061Z,16.80
2019-02-03T14:35:21.955Z,19.43
2019-02-03T14:37:48.786Z,18.97
2019-02-03T14:40:15.984Z,14.80
2019-02-03T14:42:48.049Z,19.03
2019-02-03T14:45:11.403Z,18.40
2019-02-03T14:47:38.247Z,18.90
2019-02-03T14:50:06.639Z,19.60
2019-02-03T14:52:33.463Z,18.00
2019-02-03T14:55:00.332Z,16.90
2019-02-03T14:57:27.170Z,16.77
2019-02-03T14:59:54.031Z,19.10
2019-02-03T15:02:20.871Z,19.30
2019-02-03T15:04:47.730Z,15.07
2019-02-03T15:07:14.715Z,16.00
2019-02-03T15:09:41.574Z,16.07
2019-02-03T15:12:08.408Z,16.00
2019-02-03T15:14:35.253Z,15.18
2019-02-03T15:17:02.091Z,12.30
2019-02-03T15:19:28.926Z,16.25
2019-02-03T15:21:55.774Z,16.25
2019-02-03T15:24:22.615Z,16.10
2019-02-03T15:26:49.479Z,14.30
2019-02-03T15:29:16.326Z,15.87
2019-02-03T15:31:43.206Z,13.73
2019-02-03T15:34:11.686Z,12.00
2019-02-03T15:36:36.866Z,11.23
2019-02-03T15:39:06.522Z,10.33
2019-02-03T15:41:33.386Z,13.70
2019-02-03T15:44:00.214Z,14.87
2019-02-03T15:46:27.066Z,12.55
2019-02-03T15:48:53.892Z,19.47
2019-02-03T15:51:20.739Z,15.30
2019-02-03T15:53:47.574Z,13.67
2019-02-03T15:56:14.522Z,11.97
2019-02-03T15:58:41.352Z,17.90
2019-02-03T16:01:08.208Z,12.13
2019-02-03T16:03:35.045Z,11.10
2019-02-03T16:06:01.902Z,10.60
2019-02-03T16:08:28.739Z,10.00
2019-02-03T16:10:55.606Z,12.00
2019-02-03T16:13:22.520Z,9.20
2019-02-03T16:15:49.311Z,9.70
2019-02-03T16:18:16.175Z,13.18
2019-02-03T16:20:43.045Z,13.40
2019-02-03T16:23:09.898Z,9.03
2019-02-03T16:25:36.747Z,10.63
2019-02-03T16:28:04.197Z,9.50
2019-02-03T16:30:32.544Z,10.43
2019-02-03T16:32:59.379Z,13.10
2019-02-03T16:35:26.271Z,9.63
2019-02-03T16:37:53.200Z,11.57
2019-02-03T16:40:21.893Z,10.03
2019-02-03T16:42:48.811Z,10.10
2019-02-03T16:45:15.710Z,9.50
2019-02-03T16:47:42.616Z,9.70
2019-02-03T16:50:13.086Z,10.50
2019-02-03T16:52:39.893Z,8.83
2019-02-03T16:55:07.859Z,10.85
2019-02-03T16:57:34.798Z,10.73
2019-02-03T17:00:01.652Z,8.57
2019-02-03T17:02:28.485Z,8.03
2019-02-03T17:04:55.322Z,6.83
2019-02-03T17:07:22.174Z,11.28
2019-02-03T17:09:49.154Z,7.93
2019-02-03T17:12:16.019Z,7.57
2019-02-03T17:14:42.851Z,7.00
2019-02-03T17:17:09.750Z,9.10
2019-02-03T17:19:36.600Z,9.57
2019-02-03T17:22:03.455Z,10.13
2019-02-03T17:24:30.339Z,9.75
2019-02-03T17:26:57.208Z,7.67
2019-02-03T17:29:24.045Z,9.90
2019-02-03T17:31:50.970Z,10.97
2019-02-03T17:34:17.923Z,9.53
2019-02-03T17:36:44.787Z,8.73
2019-02-03T17:39:11.637Z,8.50
2019-02-03T17:41:38.574Z,9.67
2019-02-03T17:44:14.814Z,11.05
2019-02-03T17:46:32.680Z,8.15
2019-02-03T17:48:59.555Z,9.20
2019-02-03T17:51:26.421Z,7.73
2019-02-03T17:53:53.344Z,8.33
2019-02-03T17:56:20.210Z,7.63
2019-02-03T17:58:47.058Z,8.00
2019-02-03T18:01:14.730Z,3.93
2019-02-03T18:03:41.586Z,5.00
2019-02-03T18:06:08.430Z,10.33
2019-02-03T18:08:35.299Z,5.50
2019-02-03T18:11:02.134Z,4.77
2019-02-03T18:13:28.981Z,5.42
2019-02-03T18:15:55.877Z,4.58
2019-02-03T18:18:22.835Z,5.50
2019-02-03T18:20:49.825Z,5.10
2019-02-03T18:23:16.776Z,4.10
2019-02-03T18:25:43.625Z,5.75
2019-02-03T18:28:10.495Z,6.43
2019-02-03T18:30:37.538Z,5.17
2019-02-03T18:33:05.197Z,6.77
2019-02-03T18:35:32.081Z,5.23
2019-02-03T18:37:59.023Z,3.97
2019-02-03T18:40:25.863Z,8.43
2019-02-03T18:42:52.749Z,5.45
2019-02-03T18:45:19.767Z,4.72
2019-02-03T18:47:46.687Z,4.97
2019-02-03T18:50:15.690Z,5.80
2019-02-03T18:52:42.551Z,3.47
2019-02-03T18:55:11.850Z,5.20
2019-02-03T18:57:38.710Z,7.05
2019-02-03T19:00:10.260Z,6.15
2019-02-03T19:02:37.177Z,6.13
2019-02-03T19:05:05.798Z,6.67
2019-02-03T19:07:32.729Z,6.08
2019-02-03T19:09:59.586Z,5.80
2019-02-03T19:12:26.537Z,7.30
2019-02-03T19:14:53.369Z,6.63
2019-02-03T19:17:20.242Z,4.90
2019-02-03T19:19:47.098Z,4.50
2019-02-03T19:22:14.036Z,5.40
2019-02-03T19:24:40.994Z,7.20
2019-02-03T19:27:07.834Z,6.23
2019-02-03T19:29:34.729Z,9.30
2019-02-03T19:32:01.686Z,8.00
2019-02-03T19:34:28.579Z,9.60
2019-02-03T19:37:05.187Z,6.90
2019-02-03T19:39:22.291Z,8.27
2019-02-03T19:41:49.150Z,6.57
2019-02-03T19:44:16.010Z,9.05
2019-02-03T19:46:45.058Z,8.83
2019-02-03T19:49:11.911Z,6.40
2019-02-03T19:51:39.258Z,8.35
2019-02-03T19:54:06.137Z,7.70
2019-02-03T19:56:32.979Z,9.00
2019-02-03T19:58:59.950Z,8.07
2019-02-03T20:01:26.819Z,9.63
2019-02-03T20:03:58.035Z,7.00
2019-02-03T20:06:24.949Z,7.57
2019-02-03T20:08:51.794Z,8.53
2019-02-03T20:11:18.649Z,9.13
2019-02-03T20:13:45.524Z,7.60
2019-02-03T20:16:12.362Z,9.50
2019-02-03T20:18:39.220Z,9.07
2019-02-03T20:21:06.486Z,7.90
2019-02-03T20:23:33.325Z,10.05
2019-02-03T20:26:00.163Z,8.07
2019-02-03T20:28:27.102Z,7.80
2019-02-03T20:30:54.290Z,7.42
2019-02-03T20:33:21.479Z,9.53
2019-02-03T20:35:48.314Z,14.57
2019-02-03T20:38:15.174Z,8.10
2019-02-03T20:40:42.454Z,7.27
2019-02-03T20:43:09.306Z,7.83
2019-02-03T20:45:37.968Z,8.97
2019-02-03T20:48:03.090Z,9.03
2019-02-03T20:50:29.927Z,11.87
2019-02-03T20:52:56.758Z,10.23
2019-02-03T20:55:23.650Z,9.60
2019-02-03T20:57:50.507Z,12.93
2019-02-03T21:00:22.006Z,8.60
2019-02-03T21:02:48.903Z,9.98
2019-02-03T21:05:15.750Z,10.60
2019-02-03T21:07:42.590Z,9.43
2019-02-03T21:10:11.139Z,14.47
2019-02-03T21:12:38.014Z,7.53
2019-02-03T21:15:05.930Z,7.80
2019-02-03T21:17:32.757Z,9.77
2019-02-03T21:19:59.599Z,9.35
2019-02-03T21:22:26.518Z,14.07
2019-02-03T21:24:53.371Z,12.73
2019-02-03T21:27:20.202Z,11.22
2019-02-03T21:29:47.095Z,16.10
2019-02-03T21:32:13.906Z,15.13
2019-02-03T21:34:40.786Z,12.75
2019-02-03T21:37:07.638Z,11.75
2019-02-03T21:39:34.527Z,9.37
2019-02-03T21:42:01.370Z,12.33
2019-02-03T21:44:28.221Z,9.00
2019-02-03T21:46:55.062Z,8.30
2019-02-03T21:49:21.926Z,13.77
2019-02-03T21:51:48.814Z,7.00
2019-02-03T21:54:15.661Z,8.23
2019-02-03T21:56:42.490Z,7.30
2019-02-03T21:59:09.355Z,9.07
2019-02-03T22:01:36.175Z,7.55
2019-02-03T22:04:03.014Z,9.30
2019-02-03T22:06:29.871Z,7.40
2019-02-03T22:08:56.694Z,7.72
2019-02-03T22:11:23.551Z,8.50
2019-02-03T22:13:50.383Z,8.70
2019-02-03T22:16:17.230Z,10.78
2019-02-03T22:18:44.060Z,8.20
2019-02-03T22:21:10.915Z,8.20
2019-02-03T22:23:37.738Z,7.40
2019-02-03T22:26:04.594Z,7.45
2019-02-03T22:28:31.439Z,7.10
2019-02-03T22:30:58.329Z,6.90
2019-02-03T22:33:25.154Z,5.90
2019-02-03T22:35:51.989Z,10.43
2019-02-03T22:38:18.822Z,9.03
2019-02-03T22:40:45.726Z,8.35
2019-02-03T22:43:12.550Z,7.80
2019-02-03T22:45:39.398Z,8.20
2019-02-03T22:48:06.529Z,8.50
2019-02-03T22:50:33.387Z,10.08
2019-02-03T22:53:00.214Z,8.53
2019-02-03T22:55:27.079Z,9.15
2019-02-03T22:57:53.930Z,8.28
2019-02-03T23:00:44.582Z,11.20
2019-02-03T23:03:11.417Z,9.70
2019-02-03T23:05:38.397Z,9.73
2019-02-03T23:08:05.102Z,6.90
2019-02-03T23:10:32.089Z,11.80
2019-02-03T23:12:58.929Z,8.43
2019-02-03T23:15:25.841Z,10.53
2019-02-03T23:17:52.706Z,9.00
2019-02-03T23:20:19.538Z,8.23
2019-02-03T23:22:46.394Z,8.07
2019-02-03T23:25:13.222Z,9.30
2019-02-03T23:27:40.183Z,8.13
2019-02-03T23:30:10.338Z,10.73
2019-02-03T23:32:37.183Z,8.80
2019-02-03T23:35:04.090Z,8.40
2019-02-03T23:37:30.938Z,9.43
2019-02-03T23:39:57.839Z,10.87
2019-02-03T23:42:24.681Z,9.53
2019-02-03T23:44:51.509Z,7.90
2019-02-03T23:47:18.361Z,6.70
2019-02-03T23:49:45.194Z,7.43
2019-02-03T23:52:12.050Z,5.93
2019-02-03T23:54:38.881Z,5.00
2019-02-03T23:57:05.745Z,7.97
2019-02-03T23:59:32.582Z,9.03
